sensor_id;sensor_type;location;lat;lon;timestamp;temperature;humidity
44111;DHT22;29774;52.664;5.074;2022-07-25T00:00:30;22.20;65.00
44111;DHT22;29774;52.664;5.074;2022-07-25T00:02:56;23.90;64.50
44111;DHT22;29774;52.664;5.074;2022-07-25T00:05:22;23.30;61.40
44111;DHT22;29774;52.664;5.074;2022-07-25T00:07:48;22.40;62.60
44111;DHT22;29774;52.664;5.074;2022-07-25T00:10:15;22.10;64.50
44111;DHT22;29774;52.664;5.074;2022-07-25T00:12:40;21.80;65.00
44111;DHT22;29774;52.664;5.074;2022-07-25T00:15:07;21.80;65.20
44111;DHT22;29774;52.664;5.074;2022-07-25T00:17:32;21.80;65.30
44111;DHT22;29774;52.664;5.074;2022-07-25T00:19:58;21.70;66.10
44111;DHT22;29774;52.664;5.074;2022-07-25T00:22:24;21.60;66.20
44111;DHT22;29774;52.664;5.074;2022-07-25T00:24:49;21.70;69.90
44111;DHT22;29774;52.664;5.074;2022-07-25T00:27:15;22.70;65.10
44111;DHT22;29774;52.664;5.074;2022-07-25T00:29:40;22.10;67.00
44111;DHT22;29774;52.664;5.074;2022-07-25T00:32:06;21.70;66.20
44111;DHT22;29774;52.664;5.074;2022-07-25T00:34:32;21.30;67.10
44111;DHT22;29774;52.664;5.074;2022-07-25T00:36:57;21.30;69.80
44111;DHT22;29774;52.664;5.074;2022-07-25T00:39:23;21.20;69.60
44111;DHT22;29774;52.664;5.074;2022-07-25T00:41:48;21.00;68.00
44111;DHT22;29774;52.664;5.074;2022-07-25T00:44:28;21.10;68.80
44111;DHT22;29774;52.664;5.074;2022-07-25T00:46:55;21.10;69.70
44111;DHT22;29774;52.664;5.074;2022-07-25T00:49:21;20.90;69.40
44111;DHT22;29774;52.664;5.074;2022-07-25T00:51:47;21.00;71.20
44111;DHT22;29774;52.664;5.074;2022-07-25T00:54:13;20.90;71.40
44111;DHT22;29774;52.664;5.074;2022-07-25T00:56:40;20.90;71.00
44111;DHT22;29774;52.664;5.074;2022-07-25T00:59:05;20.80;70.10
44111;DHT22;29774;52.664;5.074;2022-07-25T01:01:31;20.90;69.90
44111;DHT22;29774;52.664;5.074;2022-07-25T01:03:57;21.00;70.40
44111;DHT22;29774;52.664;5.074;2022-07-25T01:06:23;20.90;70.60
44111;DHT22;29774;52.664;5.074;2022-07-25T01:08:48;20.90;71.40
44111;DHT22;29774;52.664;5.074;2022-07-25T01:11:14;20.80;71.50
44111;DHT22;29774;52.664;5.074;2022-07-25T01:13:40;20.90;72.30
44111;DHT22;29774;52.664;5.074;2022-07-25T01:16:06;20.80;71.80
44111;DHT22;29774;52.664;5.074;2022-07-25T01:18:32;20.80;72.60
44111;DHT22;29774;52.664;5.074;2022-07-25T01:20:59;20.80;72.10
44111;DHT22;29774;52.664;5.074;2022-07-25T01:23:25;20.80;71.50
44111;DHT22;29774;52.664;5.074;2022-07-25T01:25:51;20.80;71.40
44111;DHT22;29774;52.664;5.074;2022-07-25T01:28:16;20.80;71.10
44111;DHT22;29774;52.664;5.074;2022-07-25T01:30:42;20.70;71.60
44111;DHT22;29774;52.664;5.074;2022-07-25T01:33:08;20.90;73.20
44111;DHT22;29774;52.664;5.074;2022-07-25T01:35:34;20.80;73.30
44111;DHT22;29774;52.664;5.074;2022-07-25T01:38:00;20.80;73.50
44111;DHT22;29774;52.664;5.074;2022-07-25T01:40:26;20.80;73.90
44111;DHT22;29774;52.664;5.074;2022-07-25T01:42:51;21.20;73.70
44111;DHT22;29774;52.664;5.074;2022-07-25T01:45:17;21.40;73.50
44111;DHT22;29774;52.664;5.074;2022-07-25T01:47:42;21.30;71.90
44111;DHT22;29774;52.664;5.074;2022-07-25T01:50:08;21.20;71.60
44111;DHT22;29774;52.664;5.074;2022-07-25T01:52:36;21.00;71.90
44111;DHT22;29774;52.664;5.074;2022-07-25T01:55:02;21.00;71.90
44111;DHT22;29774;52.664;5.074;2022-07-25T01:57:27;20.80;72.00
44111;DHT22;29774;52.664;5.074;2022-07-25T01:59:53;20.70;73.80
44111;DHT22;29774;52.664;5.074;2022-07-25T02:02:18;20.80;73.00
44111;DHT22;29774;52.664;5.074;2022-07-25T02:04:44;20.90;73.10
44111;DHT22;29774;52.664;5.074;2022-07-25T02:07:09;20.80;73.60
44111;DHT22;29774;52.664;5.074;2022-07-25T02:09:35;20.90;73.40
44111;DHT22;29774;52.664;5.074;2022-07-25T02:12:01;20.80;74.20
44111;DHT22;29774;52.664;5.074;2022-07-25T02:14:26;20.80;73.90
44111;DHT22;29774;52.664;5.074;2022-07-25T02:16:52;21.00;73.30
44111;DHT22;29774;52.664;5.074;2022-07-25T02:19:18;20.80;73.10
44111;DHT22;29774;52.664;5.074;2022-07-25T02:21:43;20.80;73.40
44111;DHT22;29774;52.664;5.074;2022-07-25T02:24:09;20.90;73.70
44111;DHT22;29774;52.664;5.074;2022-07-25T02:26:35;20.90;72.60
44111;DHT22;29774;52.664;5.074;2022-07-25T02:29:00;20.70;74.10
44111;DHT22;29774;52.664;5.074;2022-07-25T02:31:26;20.60;74.30
44111;DHT22;29774;52.664;5.074;2022-07-25T02:33:52;20.70;74.70
44111;DHT22;29774;52.664;5.074;2022-07-25T02:36:17;20.80;73.60
44111;DHT22;29774;52.664;5.074;2022-07-25T02:38:43;20.70;74.20
44111;DHT22;29774;52.664;5.074;2022-07-25T02:41:08;20.80;73.50
44111;DHT22;29774;52.664;5.074;2022-07-25T02:43:34;20.70;75.00
44111;DHT22;29774;52.664;5.074;2022-07-25T02:45:59;20.80;74.60
44111;DHT22;29774;52.664;5.074;2022-07-25T02:48:25;20.70;74.60
44111;DHT22;29774;52.664;5.074;2022-07-25T02:50:51;20.70;75.20
44111;DHT22;29774;52.664;5.074;2022-07-25T02:53:16;20.70;75.50
44111;DHT22;29774;52.664;5.074;2022-07-25T02:55:42;20.70;76.30
44111;DHT22;29774;52.664;5.074;2022-07-25T02:58:07;20.70;76.10
44111;DHT22;29774;52.664;5.074;2022-07-25T03:00:33;20.70;76.40
44111;DHT22;29774;52.664;5.074;2022-07-25T03:02:59;20.70;76.00
44111;DHT22;29774;52.664;5.074;2022-07-25T03:05:24;20.70;76.70
44111;DHT22;29774;52.664;5.074;2022-07-25T03:07:50;20.80;76.20
44111;DHT22;29774;52.664;5.074;2022-07-25T03:10:15;20.80;75.50
44111;DHT22;29774;52.664;5.074;2022-07-25T03:12:42;20.70;77.20
44111;DHT22;29774;52.664;5.074;2022-07-25T03:15:08;20.70;77.10
44111;DHT22;29774;52.664;5.074;2022-07-25T03:17:34;20.60;76.90
44111;DHT22;29774;52.664;5.074;2022-07-25T03:20:00;20.60;77.70
44111;DHT22;29774;52.664;5.074;2022-07-25T03:22:26;20.50;77.10
44111;DHT22;29774;52.664;5.074;2022-07-25T03:24:51;20.50;78.00
44111;DHT22;29774;52.664;5.074;2022-07-25T03:27:20;20.50;77.60
44111;DHT22;29774;52.664;5.074;2022-07-25T03:29:45;20.40;78.00
44111;DHT22;29774;52.664;5.074;2022-07-25T03:32:11;20.40;77.60
44111;DHT22;29774;52.664;5.074;2022-07-25T03:34:37;20.40;78.30
44111;DHT22;29774;52.664;5.074;2022-07-25T03:37:03;20.40;78.70
44111;DHT22;29774;52.664;5.074;2022-07-25T03:39:29;20.30;79.20
44111;DHT22;29774;52.664;5.074;2022-07-25T03:41:55;20.30;79.20
44111;DHT22;29774;52.664;5.074;2022-07-25T03:44:22;20.60;78.00
44111;DHT22;29774;52.664;5.074;2022-07-25T03:46:48;20.50;78.30
44111;DHT22;29774;52.664;5.074;2022-07-25T03:49:14;20.60;78.70
44111;DHT22;29774;52.664;5.074;2022-07-25T03:51:40;20.40;78.50
44111;DHT22;29774;52.664;5.074;2022-07-25T03:54:05;20.60;78.50
44111;DHT22;29774;52.664;5.074;2022-07-25T03:56:41;20.40;79.00
44111;DHT22;29774;52.664;5.074;2022-07-25T03:59:07;22.50;71.30
44111;DHT22;29774;52.664;5.074;2022-07-25T04:01:34;23.30;68.90
44111;DHT22;29774;52.664;5.074;2022-07-25T04:03:59;21.90;73.40
44111;DHT22;29774;52.664;5.074;2022-07-25T04:06:25;21.70;74.10
44111;DHT22;29774;52.664;5.074;2022-07-25T04:08:52;21.30;75.50
44111;DHT22;29774;52.664;5.074;2022-07-25T04:11:18;21.20;76.60
44111;DHT22;29774;52.664;5.074;2022-07-25T04:13:43;21.00;76.80
44111;DHT22;29774;52.664;5.074;2022-07-25T04:16:09;21.20;76.50
44111;DHT22;29774;52.664;5.074;2022-07-25T04:18:35;22.20;71.90
44111;DHT22;29774;52.664;5.074;2022-07-25T04:21:02;22.00;71.00
44111;DHT22;29774;52.664;5.074;2022-07-25T04:23:28;21.70;72.00
44111;DHT22;29774;52.664;5.074;2022-07-25T04:25:55;21.50;74.00
44111;DHT22;29774;52.664;5.074;2022-07-25T04:28:20;23.50;66.70
44111;DHT22;29774;52.664;5.074;2022-07-25T04:30:46;23.30;66.00
44111;DHT22;29774;52.664;5.074;2022-07-25T04:33:12;22.60;67.90
44111;DHT22;29774;52.664;5.074;2022-07-25T04:35:38;21.70;69.80
44111;DHT22;29774;52.664;5.074;2022-07-25T04:38:05;23.10;68.20
44111;DHT22;29774;52.664;5.074;2022-07-25T04:40:31;23.50;65.80
44111;DHT22;29774;52.664;5.074;2022-07-25T04:42:56;23.70;64.20
44111;DHT22;29774;52.664;5.074;2022-07-25T04:45:22;23.50;62.20
44111;DHT22;29774;52.664;5.074;2022-07-25T04:47:48;23.70;64.50
44111;DHT22;29774;52.664;5.074;2022-07-25T04:50:14;23.70;60.20
44111;DHT22;29774;52.664;5.074;2022-07-25T04:52:41;23.20;62.60
44111;DHT22;29774;52.664;5.074;2022-07-25T04:55:07;22.60;63.20
44111;DHT22;29774;52.664;5.074;2022-07-25T04:57:33;22.30;66.70
44111;DHT22;29774;52.664;5.074;2022-07-25T04:59:58;22.50;64.00
44111;DHT22;29774;52.664;5.074;2022-07-25T05:02:24;22.80;65.80
44111;DHT22;29774;52.664;5.074;2022-07-25T05:04:50;23.30;65.40
44111;DHT22;29774;52.664;5.074;2022-07-25T05:07:16;23.40;63.20
44111;DHT22;29774;52.664;5.074;2022-07-25T05:09:42;23.90;61.30
44111;DHT22;29774;52.664;5.074;2022-07-25T05:12:07;24.50;61.80
44111;DHT22;29774;52.664;5.074;2022-07-25T05:14:33;24.40;57.80
44111;DHT22;29774;52.664;5.074;2022-07-25T05:16:58;24.10;59.20
44111;DHT22;29774;52.664;5.074;2022-07-25T05:19:24;24.60;61.30
44111;DHT22;29774;52.664;5.074;2022-07-25T05:21:50;24.80;60.30
44111;DHT22;29774;52.664;5.074;2022-07-25T05:24:16;24.90;58.20
44111;DHT22;29774;52.664;5.074;2022-07-25T05:26:41;24.50;60.80
44111;DHT22;29774;52.664;5.074;2022-07-25T05:29:07;25.00;59.90
44111;DHT22;29774;52.664;5.074;2022-07-25T05:31:33;25.20;58.90
44111;DHT22;29774;52.664;5.074;2022-07-25T05:33:58;25.00;57.90
44111;DHT22;29774;52.664;5.074;2022-07-25T05:36:24;25.20;59.20
44111;DHT22;29774;52.664;5.074;2022-07-25T05:38:49;25.10;59.20
44111;DHT22;29774;52.664;5.074;2022-07-25T05:41:15;25.20;58.80
44111;DHT22;29774;52.664;5.074;2022-07-25T05:43:40;25.40;56.80
44111;DHT22;29774;52.664;5.074;2022-07-25T05:46:10;25.30;58.40
44111;DHT22;29774;52.664;5.074;2022-07-25T05:48:36;25.30;57.90
44111;DHT22;29774;52.664;5.074;2022-07-25T05:51:01;25.20;58.60
44111;DHT22;29774;52.664;5.074;2022-07-25T05:53:27;25.20;57.80
44111;DHT22;29774;52.664;5.074;2022-07-25T05:55:52;25.30;58.30
44111;DHT22;29774;52.664;5.074;2022-07-25T05:58:18;25.20;57.90
44111;DHT22;29774;52.664;5.074;2022-07-25T06:00:43;25.10;58.00
44111;DHT22;29774;52.664;5.074;2022-07-25T06:03:09;25.20;58.60
44111;DHT22;29774;52.664;5.074;2022-07-25T06:05:35;25.30;58.40
44111;DHT22;29774;52.664;5.074;2022-07-25T06:08:00;25.20;58.00
44111;DHT22;29774;52.664;5.074;2022-07-25T06:10:26;25.30;58.20
44111;DHT22;29774;52.664;5.074;2022-07-25T06:12:51;25.20;58.40
44111;DHT22;29774;52.664;5.074;2022-07-25T06:15:17;25.20;58.70
44111;DHT22;29774;52.664;5.074;2022-07-25T06:17:43;25.20;58.50
44111;DHT22;29774;52.664;5.074;2022-07-25T06:20:09;25.20;58.30
44111;DHT22;29774;52.664;5.074;2022-07-25T06:22:34;25.10;58.70
44111;DHT22;29774;52.664;5.074;2022-07-25T06:25:01;25.10;58.60
44111;DHT22;29774;52.664;5.074;2022-07-25T06:27:27;25.10;58.70
44111;DHT22;29774;52.664;5.074;2022-07-25T06:29:53;25.20;58.40
44111;DHT22;29774;52.664;5.074;2022-07-25T06:32:18;25.00;58.60
44111;DHT22;29774;52.664;5.074;2022-07-25T06:34:44;25.10;58.20
44111;DHT22;29774;52.664;5.074;2022-07-25T06:37:09;25.20;58.70
44111;DHT22;29774;52.664;5.074;2022-07-25T06:39:35;25.20;58.60
44111;DHT22;29774;52.664;5.074;2022-07-25T06:42:00;25.20;58.70
44111;DHT22;29774;52.664;5.074;2022-07-25T06:44:31;25.20;58.60
44111;DHT22;29774;52.664;5.074;2022-07-25T06:46:57;25.00;58.80
44111;DHT22;29774;52.664;5.074;2022-07-25T06:49:22;25.00;59.10
44111;DHT22;29774;52.664;5.074;2022-07-25T06:51:48;25.00;59.10
44111;DHT22;29774;52.664;5.074;2022-07-25T06:54:13;25.10;58.70
44111;DHT22;29774;52.664;5.074;2022-07-25T06:56:40;25.20;58.50
44111;DHT22;29774;52.664;5.074;2022-07-25T06:59:05;25.10;59.10
44111;DHT22;29774;52.664;5.074;2022-07-25T07:01:31;25.10;59.00
44111;DHT22;29774;52.664;5.074;2022-07-25T07:03:56;25.10;58.90
44111;DHT22;29774;52.664;5.074;2022-07-25T07:06:22;25.10;59.00
44111;DHT22;29774;52.664;5.074;2022-07-25T07:08:48;25.10;58.90
44111;DHT22;29774;52.664;5.074;2022-07-25T07:11:13;25.20;58.80
44111;DHT22;29774;52.664;5.074;2022-07-25T07:13:41;25.10;58.80
44111;DHT22;29774;52.664;5.074;2022-07-25T07:16:07;25.20;58.70
44111;DHT22;29774;52.664;5.074;2022-07-25T07:18:32;25.10;59.10
44111;DHT22;29774;52.664;5.074;2022-07-25T07:20:58;25.00;59.80
44111;DHT22;29774;52.664;5.074;2022-07-25T07:23:23;25.00;59.40
44111;DHT22;29774;52.664;5.074;2022-07-25T07:25:49;25.10;59.00
44111;DHT22;29774;52.664;5.074;2022-07-25T07:28:15;25.10;59.10
44111;DHT22;29774;52.664;5.074;2022-07-25T07:30:40;25.20;59.00
44111;DHT22;29774;52.664;5.074;2022-07-25T07:33:06;25.20;59.10
44111;DHT22;29774;52.664;5.074;2022-07-25T07:35:32;25.10;59.00
44111;DHT22;29774;52.664;5.074;2022-07-25T07:37:57;25.00;59.90
44111;DHT22;29774;52.664;5.074;2022-07-25T07:40:23;25.20;58.80
44111;DHT22;29774;52.664;5.074;2022-07-25T07:42:51;25.20;59.50
44111;DHT22;29774;52.664;5.074;2022-07-25T07:45:22;25.30;58.50
44111;DHT22;29774;52.664;5.074;2022-07-25T07:47:49;25.30;59.30
44111;DHT22;29774;52.664;5.074;2022-07-25T07:50:18;25.20;60.20
44111;DHT22;29774;52.664;5.074;2022-07-25T07:52:44;25.20;60.00
44111;DHT22;29774;52.664;5.074;2022-07-25T07:55:10;25.40;59.20
44111;DHT22;29774;52.664;5.074;2022-07-25T07:57:54;25.50;58.80
44111;DHT22;29774;52.664;5.074;2022-07-25T08:00:21;25.40;59.00
44111;DHT22;29774;52.664;5.074;2022-07-25T08:02:49;25.40;59.10
44111;DHT22;29774;52.664;5.074;2022-07-25T08:05:27;25.50;58.50
44111;DHT22;29774;52.664;5.074;2022-07-25T08:07:53;25.60;58.30
44111;DHT22;29774;52.664;5.074;2022-07-25T08:10:20;25.60;58.10
44111;DHT22;29774;52.664;5.074;2022-07-25T08:12:46;25.60;58.20
44111;DHT22;29774;52.664;5.074;2022-07-25T08:15:11;25.50;58.70
44111;DHT22;29774;52.664;5.074;2022-07-25T08:17:37;25.60;60.70
44111;DHT22;29774;52.664;5.074;2022-07-25T08:20:03;25.60;59.40
44111;DHT22;29774;52.664;5.074;2022-07-25T08:22:40;25.50;58.60
44111;DHT22;29774;52.664;5.074;2022-07-25T08:25:08;25.70;58.30
44111;DHT22;29774;52.664;5.074;2022-07-25T08:27:35;25.70;58.10
44111;DHT22;29774;52.664;5.074;2022-07-25T08:30:02;25.70;58.20
44111;DHT22;29774;52.664;5.074;2022-07-25T08:32:28;25.60;58.80
44111;DHT22;29774;52.664;5.074;2022-07-25T08:34:55;25.60;58.60
44111;DHT22;29774;52.664;5.074;2022-07-25T08:37:20;25.70;59.10
44111;DHT22;29774;52.664;5.074;2022-07-25T08:39:46;25.70;58.10
44111;DHT22;29774;52.664;5.074;2022-07-25T08:42:12;25.70;59.40
44111;DHT22;29774;52.664;5.074;2022-07-25T08:44:41;25.70;58.20
44111;DHT22;29774;52.664;5.074;2022-07-25T08:47:08;25.70;58.10
44111;DHT22;29774;52.664;5.074;2022-07-25T08:49:34;25.70;58.00
44111;DHT22;29774;52.664;5.074;2022-07-25T08:52:02;25.80;58.00
44111;DHT22;29774;52.664;5.074;2022-07-25T08:54:29;25.80;58.00
44111;DHT22;29774;52.664;5.074;2022-07-25T08:56:55;25.80;58.10
44111;DHT22;29774;52.664;5.074;2022-07-25T08:59:21;25.80;58.60
44111;DHT22;29774;52.664;5.074;2022-07-25T09:01:46;25.80;57.90
44111;DHT22;29774;52.664;5.074;2022-07-25T09:04:12;25.80;58.10
44111;DHT22;29774;52.664;5.074;2022-07-25T09:06:48;25.80;57.80
44111;DHT22;29774;52.664;5.074;2022-07-25T09:09:14;25.80;57.90
44111;DHT22;29774;52.664;5.074;2022-07-25T09:11:40;25.90;57.80
44111;DHT22;29774;52.664;5.074;2022-07-25T09:14:09;25.80;57.80
44111;DHT22;29774;52.664;5.074;2022-07-25T09:16:37;25.80;57.90
44111;DHT22;29774;52.664;5.074;2022-07-25T09:19:16;25.90;58.10
44111;DHT22;29774;52.664;5.074;2022-07-25T09:21:44;25.80;57.90
44111;DHT22;29774;52.664;5.074;2022-07-25T09:24:15;25.90;57.90
44111;DHT22;29774;52.664;5.074;2022-07-25T09:26:46;25.90;58.60
44111;DHT22;29774;52.664;5.074;2022-07-25T09:29:19;26.00;57.60
44111;DHT22;29774;52.664;5.074;2022-07-25T09:31:46;25.90;57.70
44111;DHT22;29774;52.664;5.074;2022-07-25T09:34:11;26.00;57.60
44111;DHT22;29774;52.664;5.074;2022-07-25T09:36:49;26.00;57.50
44111;DHT22;29774;52.664;5.074;2022-07-25T09:39:15;26.00;57.50
44111;DHT22;29774;52.664;5.074;2022-07-25T09:41:40;26.00;57.80
44111;DHT22;29774;52.664;5.074;2022-07-25T09:44:17;26.00;57.60
44111;DHT22;29774;52.664;5.074;2022-07-25T09:46:42;26.00;57.60
44111;DHT22;29774;52.664;5.074;2022-07-25T09:49:08;26.10;57.40
44111;DHT22;29774;52.664;5.074;2022-07-25T09:51:34;26.10;57.40
44111;DHT22;29774;52.664;5.074;2022-07-25T09:54:03;26.00;57.60
44111;DHT22;29774;52.664;5.074;2022-07-25T09:56:29;26.00;57.60
44111;DHT22;29774;52.664;5.074;2022-07-25T09:58:55;26.00;57.80
44111;DHT22;29774;52.664;5.074;2022-07-25T10:01:28;26.00;57.70
44111;DHT22;29774;52.664;5.074;2022-07-25T10:07:08;26.00;57.80
44111;DHT22;29774;52.664;5.074;2022-07-25T10:09:45;26.00;57.70
44111;DHT22;29774;52.664;5.074;2022-07-25T10:12:13;26.00;57.80
44111;DHT22;29774;52.664;5.074;2022-07-25T10:14:39;26.00;57.80
44111;DHT22;29774;52.664;5.074;2022-07-25T10:17:05;26.00;57.70
44111;DHT22;29774;52.664;5.074;2022-07-25T10:19:43;26.00;57.70
44111;DHT22;29774;52.664;5.074;2022-07-25T10:22:09;26.10;57.30
44111;DHT22;29774;52.664;5.074;2022-07-25T10:24:36;26.00;57.30
44111;DHT22;29774;52.664;5.074;2022-07-25T10:27:12;26.10;57.50
44111;DHT22;29774;52.664;5.074;2022-07-25T10:29:56;26.00;57.40
44111;DHT22;29774;52.664;5.074;2022-07-25T10:32:25;26.00;57.50
44111;DHT22;29774;52.664;5.074;2022-07-25T10:34:57;26.00;57.00
44111;DHT22;29774;52.664;5.074;2022-07-25T10:37:27;26.00;57.80
44111;DHT22;29774;52.664;5.074;2022-07-25T10:39:53;26.00;57.60
44111;DHT22;29774;52.664;5.074;2022-07-25T10:42:21;26.00;57.70
44111;DHT22;29774;52.664;5.074;2022-07-25T10:44:54;26.00;57.50
44111;DHT22;29774;52.664;5.074;2022-07-25T10:47:26;26.00;57.70
44111;DHT22;29774;52.664;5.074;2022-07-25T10:50:00;26.10;57.60
44111;DHT22;29774;52.664;5.074;2022-07-25T10:52:29;26.00;57.60
44111;DHT22;29774;52.664;5.074;2022-07-25T10:54:59;25.80;58.30
44111;DHT22;29774;52.664;5.074;2022-07-25T10:57:26;26.00;58.00
44111;DHT22;29774;52.664;5.074;2022-07-25T10:59:52;26.00;57.80
44111;DHT22;29774;52.664;5.074;2022-07-25T11:02:18;26.10;57.60
44111;DHT22;29774;52.664;5.074;2022-07-25T11:05:01;26.20;57.40
44111;DHT22;29774;52.664;5.074;2022-07-25T11:07:27;26.20;57.50
44111;DHT22;29774;52.664;5.074;2022-07-25T11:10:00;26.10;57.50
44111;DHT22;29774;52.664;5.074;2022-07-25T11:12:26;26.20;57.30
44111;DHT22;29774;52.664;5.074;2022-07-25T11:15:11;26.20;57.00
44111;DHT22;29774;52.664;5.074;2022-07-25T11:17:37;26.20;57.30
44111;DHT22;29774;52.664;5.074;2022-07-25T11:20:08;26.10;57.50
44111;DHT22;29774;52.664;5.074;2022-07-25T11:22:34;26.10;57.60
44111;DHT22;29774;52.664;5.074;2022-07-25T11:25:00;26.10;57.50
44111;DHT22;29774;52.664;5.074;2022-07-25T11:27:31;26.20;57.30
44111;DHT22;29774;52.664;5.074;2022-07-25T11:32:51;26.10;57.30
44111;DHT22;29774;52.664;5.074;2022-07-25T11:35:28;26.10;57.40
44111;DHT22;29774;52.664;5.074;2022-07-25T11:37:54;26.10;57.30
44111;DHT22;29774;52.664;5.074;2022-07-25T11:40:21;26.10;57.50
44111;DHT22;29774;52.664;5.074;2022-07-25T11:42:49;26.20;57.50
44111;DHT22;29774;52.664;5.074;2022-07-25T11:45:27;26.20;57.30
44111;DHT22;29774;52.664;5.074;2022-07-25T11:48:13;26.20;57.60
44111;DHT22;29774;52.664;5.074;2022-07-25T11:50:41;26.10;57.10
44111;DHT22;29774;52.664;5.074;2022-07-25T11:53:10;26.20;57.40
44111;DHT22;29774;52.664;5.074;2022-07-25T11:55:37;26.20;57.30
44111;DHT22;29774;52.664;5.074;2022-07-25T11:58:08;26.20;57.30
44111;DHT22;29774;52.664;5.074;2022-07-25T12:00:38;26.10;56.80
44111;DHT22;29774;52.664;5.074;2022-07-25T12:03:10;26.20;57.40
44111;DHT22;29774;52.664;5.074;2022-07-25T12:05:36;26.20;57.30
44111;DHT22;29774;52.664;5.074;2022-07-25T12:08:15;26.20;57.10
44111;DHT22;29774;52.664;5.074;2022-07-25T12:10:41;26.20;57.30
44111;DHT22;29774;52.664;5.074;2022-07-25T12:13:08;26.20;57.20
44111;DHT22;29774;52.664;5.074;2022-07-25T12:15:39;26.20;57.20
44111;DHT22;29774;52.664;5.074;2022-07-25T12:18:07;26.20;57.10
44111;DHT22;29774;52.664;5.074;2022-07-25T12:20:37;26.10;58.20
44111;DHT22;29774;52.664;5.074;2022-07-25T12:23:05;26.00;58.60
44111;DHT22;29774;52.664;5.074;2022-07-25T12:25:40;26.10;58.10
44111;DHT22;29774;52.664;5.074;2022-07-25T12:28:06;26.10;57.30
44111;DHT22;29774;52.664;5.074;2022-07-25T12:30:33;26.20;57.50
44111;DHT22;29774;52.664;5.074;2022-07-25T12:32:59;26.30;57.20
44111;DHT22;29774;52.664;5.074;2022-07-25T12:35:25;26.40;56.60
44111;DHT22;29774;52.664;5.074;2022-07-25T12:37:51;26.50;56.70
44111;DHT22;29774;52.664;5.074;2022-07-25T12:40:17;26.60;56.50
44111;DHT22;29774;52.664;5.074;2022-07-25T12:42:43;26.60;54.60
44111;DHT22;29774;52.664;5.074;2022-07-25T12:45:10;26.70;56.30
44111;DHT22;29774;52.664;5.074;2022-07-25T12:47:36;26.60;55.40
44111;DHT22;29774;52.664;5.074;2022-07-25T12:50:03;26.70;54.60
44111;DHT22;29774;52.664;5.074;2022-07-25T12:52:29;26.70;56.30
44111;DHT22;29774;52.664;5.074;2022-07-25T12:54:54;26.70;56.30
44111;DHT22;29774;52.664;5.074;2022-07-25T12:57:20;26.70;55.90
44111;DHT22;29774;52.664;5.074;2022-07-25T12:59:46;26.70;56.10
44111;DHT22;29774;52.664;5.074;2022-07-25T13:02:12;26.70;55.70
44111;DHT22;29774;52.664;5.074;2022-07-25T13:04:37;26.70;55.90
44111;DHT22;29774;52.664;5.074;2022-07-25T13:07:03;26.70;56.00
44111;DHT22;29774;52.664;5.074;2022-07-25T13:09:29;26.80;55.50
44111;DHT22;29774;52.664;5.074;2022-07-25T13:11:55;26.70;55.80
44111;DHT22;29774;52.664;5.074;2022-07-25T13:14:20;26.80;55.80
44111;DHT22;29774;52.664;5.074;2022-07-25T13:16:47;26.90;55.60
44111;DHT22;29774;52.664;5.074;2022-07-25T13:19:14;26.80;55.80
44111;DHT22;29774;52.664;5.074;2022-07-25T13:21:40;26.80;55.70
44111;DHT22;29774;52.664;5.074;2022-07-25T13:24:06;26.80;55.60
44111;DHT22;29774;52.664;5.074;2022-07-25T13:26:33;26.90;53.70
44111;DHT22;29774;52.664;5.074;2022-07-25T13:28:59;26.90;55.50
44111;DHT22;29774;52.664;5.074;2022-07-25T13:31:24;26.80;55.60
44111;DHT22;29774;52.664;5.074;2022-07-25T13:33:50;26.80;55.30
44111;DHT22;29774;52.664;5.074;2022-07-25T13:36:17;26.90;54.40
44111;DHT22;29774;52.664;5.074;2022-07-25T13:38:43;26.90;54.70
44111;DHT22;29774;52.664;5.074;2022-07-25T13:41:11;26.80;55.40
44111;DHT22;29774;52.664;5.074;2022-07-25T13:43:37;26.90;54.80
44111;DHT22;29774;52.664;5.074;2022-07-25T13:46:03;26.90;54.60
44111;DHT22;29774;52.664;5.074;2022-07-25T13:48:28;26.90;55.60
44111;DHT22;29774;52.664;5.074;2022-07-25T13:50:55;27.00;55.40
44111;DHT22;29774;52.664;5.074;2022-07-25T13:53:21;27.00;55.30
44111;DHT22;29774;52.664;5.074;2022-07-25T13:55:47;27.00;55.40
44111;DHT22;29774;52.664;5.074;2022-07-25T13:58:13;27.00;53.90
44111;DHT22;29774;52.664;5.074;2022-07-25T14:00:38;27.00;55.20
44111;DHT22;29774;52.664;5.074;2022-07-25T14:03:04;27.00;55.00
44111;DHT22;29774;52.664;5.074;2022-07-25T14:05:30;27.10;55.00
44111;DHT22;29774;52.664;5.074;2022-07-25T14:07:56;27.10;54.90
44111;DHT22;29774;52.664;5.074;2022-07-25T14:10:21;27.20;54.50
44111;DHT22;29774;52.664;5.074;2022-07-25T14:12:47;27.10;54.70
44111;DHT22;29774;52.664;5.074;2022-07-25T14:15:13;27.10;55.00
44111;DHT22;29774;52.664;5.074;2022-07-25T14:17:38;27.20;54.50
44111;DHT22;29774;52.664;5.074;2022-07-25T14:20:05;27.10;52.50
44111;DHT22;29774;52.664;5.074;2022-07-25T14:22:31;27.10;54.60
44111;DHT22;29774;52.664;5.074;2022-07-25T14:24:56;27.10;54.90
44111;DHT22;29774;52.664;5.074;2022-07-25T14:27:22;27.10;54.70
44111;DHT22;29774;52.664;5.074;2022-07-25T14:29:48;27.10;55.10
44111;DHT22;29774;52.664;5.074;2022-07-25T14:32:13;27.10;55.00
44111;DHT22;29774;52.664;5.074;2022-07-25T14:34:39;27.20;54.90
44111;DHT22;29774;52.664;5.074;2022-07-25T14:37:05;27.10;54.90
44111;DHT22;29774;52.664;5.074;2022-07-25T14:39:31;27.20;55.10
44111;DHT22;29774;52.664;5.074;2022-07-25T14:41:57;27.10;54.80
44111;DHT22;29774;52.664;5.074;2022-07-25T14:44:24;27.10;54.90
44111;DHT22;29774;52.664;5.074;2022-07-25T14:46:51;27.20;54.30
44111;DHT22;29774;52.664;5.074;2022-07-25T14:49:17;27.20;54.90
44111;DHT22;29774;52.664;5.074;2022-07-25T14:51:43;27.20;54.70
44111;DHT22;29774;52.664;5.074;2022-07-25T14:54:12;27.20;53.70
44111;DHT22;29774;52.664;5.074;2022-07-25T14:56:42;27.20;55.00
44111;DHT22;29774;52.664;5.074;2022-07-25T14:59:08;27.30;54.70
44111;DHT22;29774;52.664;5.074;2022-07-25T15:02:11;27.20;54.80
44111;DHT22;29774;52.664;5.074;2022-07-25T15:04:37;27.30;54.70
44111;DHT22;29774;52.664;5.074;2022-07-25T15:07:02;27.20;53.20
44111;DHT22;29774;52.664;5.074;2022-07-25T15:09:28;27.20;54.90
44111;DHT22;29774;52.664;5.074;2022-07-25T15:11:54;27.30;54.50
44111;DHT22;29774;52.664;5.074;2022-07-25T15:14:19;27.30;54.60
44111;DHT22;29774;52.664;5.074;2022-07-25T15:16:45;27.20;54.70
44111;DHT22;29774;52.664;5.074;2022-07-25T15:19:10;27.20;54.50
44111;DHT22;29774;52.664;5.074;2022-07-25T15:21:36;27.20;52.10
44111;DHT22;29774;52.664;5.074;2022-07-25T15:24:02;27.20;54.60
44111;DHT22;29774;52.664;5.074;2022-07-25T15:26:28;27.20;54.70
44111;DHT22;29774;52.664;5.074;2022-07-25T15:28:54;27.30;54.70
44111;DHT22;29774;52.664;5.074;2022-07-25T15:31:19;27.30;54.60
44111;DHT22;29774;52.664;5.074;2022-07-25T15:33:47;27.30;54.80